Time;durP1;ratioP1;P1;durP2;ratioP2;P2;SDS_P1;SDS_P2;PMS_P1;PMS_P2;Temp;Humidity;BMP_temperature;BMP_pressure;BME280_temperature;BME280_humidity;BME280_pressure;Samples;Min_cycle;Max_cycle;Signal;HPM_P1;HPM_P2
2023/03/09 00:00:30;;;;;;;1.23;1.00;;;;;;;;;;4986476;28;20026;-82
2023/03/09 00:02:56;;;;;;;1.63;1.10;;;;;;;;;;4987316;28;20018;-81
2023/03/09 00:05:22;;;;;;;1.77;1.05;;;;;;;;;;4988525;28;20044;-82
2023/03/09 00:07:48;;;;;;;1.48;1.10;;;;;;;;;;4985445;28;20109;-82
2023/03/09 00:10:15;;;;;;;2.13;1.27;;;;;;;;;;4986796;28;20104;-81
2023/03/09 00:12:41;;;;;;;1.48;0.90;;;;;;;;;;4988180;28;20037;-82
2023/03/09 00:15:08;;;;;;;3.63;1.30;;;;;;;;;;4989316;28;20488;-82
2023/03/09 00:17:34;;;;;;;1.20;1.10;;;;;;;;;;4984758;28;20042;-82
2023/03/09 00:20:17;;;;;;;1.80;1.23;;;;;;;;;;4988381;28;20022;-81
2023/03/09 00:22:44;;;;;;;1.52;1.00;;;;;;;;;;4984356;28;20029;-81
2023/03/09 00:25:13;;;;;;;0.90;0.82;;;;;;;;;;4988063;28;20045;-82
2023/03/09 00:27:39;;;;;;;1.05;0.90;;;;;;;;;;4989383;28;20477;-82
2023/03/09 00:30:05;;;;;;;1.38;1.02;;;;;;;;;;4985230;28;20520;-81
2023/03/09 00:32:31;;;;;;;1.15;1.05;;;;;;;;;;4985668;28;20088;-82
2023/03/09 00:34:57;;;;;;;1.35;1.05;;;;;;;;;;4981751;28;20030;-81
2023/03/09 00:37:23;;;;;;;2.63;1.20;;;;;;;;;;4987080;28;20031;-83
2023/03/09 00:39:49;;;;;;;1.63;1.02;;;;;;;;;;4984581;28;20030;-82
2023/03/09 00:42:15;;;;;;;1.88;1.00;;;;;;;;;;4984263;28;20061;-81
2023/03/09 00:44:41;;;;;;;1.63;1.40;;;;;;;;;;4986014;28;20029;-81
2023/03/09 00:47:07;;;;;;;1.55;0.93;;;;;;;;;;4989258;28;20022;-81
2023/03/09 00:49:33;;;;;;;1.75;1.17;;;;;;;;;;4985413;28;20031;-81
2023/03/09 00:51:59;;;;;;;1.25;1.05;;;;;;;;;;4984113;28;20041;-80
2023/03/09 00:54:25;;;;;;;1.90;1.20;;;;;;;;;;4987001;28;20030;-81
2023/03/09 00:56:50;;;;;;;2.83;1.17;;;;;;;;;;4985099;28;20042;-80
2023/03/09 00:59:16;;;;;;;2.13;0.95;;;;;;;;;;4988538;28;20084;-81
2023/03/09 01:01:42;;;;;;;1.38;1.05;;;;;;;;;;4982783;28;20022;-81
2023/03/09 01:04:08;;;;;;;1.40;1.10;;;;;;;;;;4985409;28;20041;-82
2023/03/09 01:06:34;;;;;;;1.38;1.02;;;;;;;;;;4986672;28;20513;-80
2023/03/09 01:09:00;;;;;;;0.93;0.90;;;;;;;;;;4987029;28;20030;-80
2023/03/09 01:11:27;;;;;;;1.23;1.10;;;;;;;;;;4982238;28;20027;-81
2023/03/09 01:13:53;;;;;;;1.17;1.00;;;;;;;;;;4986627;28;20042;-81
2023/03/09 01:16:19;;;;;;;0.85;0.80;;;;;;;;;;4986170;28;20049;-82
2023/03/09 01:18:45;;;;;;;1.25;1.10;;;;;;;;;;4988648;28;20038;-82
2023/03/09 01:21:11;;;;;;;1.98;0.95;;;;;;;;;;4981848;28;20371;-83
2023/03/09 01:23:38;;;;;;;1.90;1.33;;;;;;;;;;4983704;28;20428;-83
2023/03/09 01:26:05;;;;;;;2.85;1.02;;;;;;;;;;4982973;28;20018;-82
2023/03/09 01:28:31;;;;;;;1.30;0.90;;;;;;;;;;4987948;28;20456;-82
2023/03/09 01:30:57;;;;;;;2.03;1.40;;;;;;;;;;4985538;28;20398;-85
2023/03/09 01:33:23;;;;;;;2.75;1.50;;;;;;;;;;4987955;28;20041;-82
2023/03/09 01:35:49;;;;;;;1.77;1.35;;;;;;;;;;4983735;28;20287;-81
2023/03/09 01:38:15;;;;;;;1.88;1.15;;;;;;;;;;4987262;28;20433;-81
2023/03/09 01:40:44;;;;;;;1.13;1.02;;;;;;;;;;4985258;28;20095;-83
2023/03/09 01:43:31;;;;;;;1.15;0.88;;;;;;;;;;4985976;28;20038;-84
2023/03/09 01:46:16;;;;;;;1.67;1.02;;;;;;;;;;4981174;28;20030;-82
2023/03/09 01:48:42;;;;;;;1.38;1.10;;;;;;;;;;4984934;28;20034;-82
2023/03/09 01:51:08;;;;;;;2.97;1.00;;;;;;;;;;4984933;28;20026;-82
2023/03/09 01:53:34;;;;;;;4.05;1.20;;;;;;;;;;4986189;28;20088;-82
2023/03/09 01:56:01;;;;;;;1.52;1.17;;;;;;;;;;4985779;28;20045;-82
2023/03/09 01:58:29;;;;;;;2.80;1.75;;;;;;;;;;4986999;28;20033;-82
2023/03/09 02:00:56;;;;;;;3.03;1.20;;;;;;;;;;4987411;28;20121;-82
2023/03/09 02:03:24;;;;;;;1.80;1.20;;;;;;;;;;4986273;28;20022;-81
2023/03/09 02:05:53;;;;;;;3.60;1.67;;;;;;;;;;4983396;28;20038;-82
2023/03/09 02:08:20;;;;;;;2.13;1.10;;;;;;;;;;4985661;28;20042;-82
2023/03/09 02:10:56;;;;;;;2.25;1.20;;;;;;;;;;4989086;28;20629;-82
2023/03/09 02:13:31;;;;;;;2.40;1.40;;;;;;;;;;4987308;28;20071;-83
2023/03/09 02:15:57;;;;;;;1.58;1.17;;;;;;;;;;4982716;28;20113;-84
2023/03/09 02:18:24;;;;;;;1.83;0.93;;;;;;;;;;4991031;28;20104;-83
2023/03/09 02:21:02;;;;;;;2.05;1.15;;;;;;;;;;4985737;28;20046;-83
2023/03/09 02:23:36;;;;;;;1.67;0.90;;;;;;;;;;4979203;28;20030;-82
2023/03/09 02:26:14;;;;;;;3.47;1.38;;;;;;;;;;4986067;28;20167;-82
2023/03/09 02:28:40;;;;;;;1.20;1.10;;;;;;;;;;4985144;28;20125;-83
2023/03/09 02:31:07;;;;;;;4.25;1.30;;;;;;;;;;4984713;28;20473;-83
2023/03/09 02:33:33;;;;;;;2.38;1.05;;;;;;;;;;4985785;28;20089;-82
2023/03/09 02:35:59;;;;;;;1.38;1.20;;;;;;;;;;4986220;28;20038;-82
2023/03/09 02:38:26;;;;;;;1.75;1.40;;;;;;;;;;4985672;28;20516;-83
2023/03/09 02:40:53;;;;;;;1.70;1.30;;;;;;;;;;4984093;28;20081;-82
2023/03/09 02:43:20;;;;;;;1.15;1.00;;;;;;;;;;4985502;28;20026;-83
2023/03/09 02:45:46;;;;;;;2.45;1.40;;;;;;;;;;4985655;28;20037;-82
2023/03/09 02:48:12;;;;;;;1.75;1.27;;;;;;;;;;4985463;28;20117;-83
2023/03/09 02:50:38;;;;;;;1.27;1.15;;;;;;;;;;4984441;28;20163;-82
2023/03/09 02:53:04;;;;;;;1.30;1.13;;;;;;;;;;4984303;28;20401;-82
2023/03/09 02:55:30;;;;;;;1.38;1.02;;;;;;;;;;4984591;28;20034;-83
2023/03/09 02:57:57;;;;;;;1.58;1.48;;;;;;;;;;4983907;28;20599;-83
2023/03/09 03:00:24;;;;;;;2.75;1.30;;;;;;;;;;4986344;28;20026;-82
2023/03/09 03:02:50;;;;;;;3.88;1.75;;;;;;;;;;4981854;28;20447;-83
2023/03/09 03:05:16;;;;;;;1.42;1.10;;;;;;;;;;4986877;28;20026;-84
2023/03/09 03:07:42;;;;;;;2.72;1.30;;;;;;;;;;4988458;28;20665;-81
2023/03/09 03:10:08;;;;;;;1.10;0.93;;;;;;;;;;4998356;28;20058;-83
2023/03/09 03:12:34;;;;;;;3.67;1.55;;;;;;;;;;4988108;28;20041;-83
2023/03/09 03:15:00;;;;;;;3.20;0.95;;;;;;;;;;4990609;28;20022;-82
2023/03/09 03:17:26;;;;;;;3.28;1.45;;;;;;;;;;4989165;28;20097;-82
2023/03/09 03:19:53;;;;;;;2.55;1.40;;;;;;;;;;4990341;28;20034;-82
2023/03/09 03:22:19;;;;;;;1.63;1.30;;;;;;;;;;4987776;28;20060;-82
2023/03/09 03:24:45;;;;;;;1.10;1.00;;;;;;;;;;4987759;28;20397;-82
2023/03/09 03:27:11;;;;;;;1.65;1.13;;;;;;;;;;4987966;28;20121;-82
2023/03/09 03:29:37;;;;;;;1.48;1.27;;;;;;;;;;4988300;28;20027;-82
2023/03/09 03:32:03;;;;;;;1.75;1.35;;;;;;;;;;4989978;28;20030;-82
2023/03/09 03:34:29;;;;;;;1.85;1.48;;;;;;;;;;4989135;28;20100;-82
2023/03/09 03:36:55;;;;;;;1.58;1.00;;;;;;;;;;4988515;28;20034;-81
2023/03/09 03:39:21;;;;;;;1.67;1.10;;;;;;;;;;4988264;28;20405;-83
2023/03/09 03:41:47;;;;;;;2.30;1.23;;;;;;;;;;4989278;28;20468;-83
2023/03/09 03:44:13;;;;;;;1.90;1.23;;;;;;;;;;5000695;28;20061;-83
2023/03/09 03:46:39;;;;;;;1.85;1.00;;;;;;;;;;4987667;28;20022;-83
2023/03/09 03:49:05;;;;;;;1.88;1.45;;;;;;;;;;4985969;28;20569;-83
2023/03/09 03:51:31;;;;;;;2.53;1.00;;;;;;;;;;4990630;28;20522;-83
2023/03/09 03:53:57;;;;;;;1.17;1.05;;;;;;;;;;4986190;28;20441;-82
2023/03/09 03:56:23;;;;;;;1.33;1.15;;;;;;;;;;4986601;28;20434;-80
2023/03/09 03:58:49;;;;;;;1.02;0.98;;;;;;;;;;4986358;28;20037;-82
2023/03/09 04:01:15;;;;;;;2.05;1.38;;;;;;;;;;4988311;28;20018;-82
2023/03/09 04:03:41;;;;;;;1.73;1.42;;;;;;;;;;4989383;28;20031;-82
2023/03/09 04:06:07;;;;;;;2.45;1.13;;;;;;;;;;4986392;28;20023;-81
2023/03/09 04:08:33;;;;;;;1.23;1.13;;;;;;;;;;4984714;28;20057;-81
2023/03/09 04:10:59;;;;;;;3.05;1.23;;;;;;;;;;4986645;28;20042;-81
2023/03/09 04:13:25;;;;;;;1.33;1.08;;;;;;;;;;4989571;28;20035;-81
2023/03/09 04:15:51;;;;;;;1.63;1.27;;;;;;;;;;4985560;28;20034;-81
2023/03/09 04:18:17;;;;;;;1.45;1.17;;;;;;;;;;4988817;28;20023;-81
2023/03/09 04:20:44;;;;;;;1.58;1.48;;;;;;;;;;4984891;28;20521;-81
2023/03/09 04:23:10;;;;;;;1.90;1.35;;;;;;;;;;4986505;28;20544;-81
2023/03/09 04:25:36;;;;;;;2.38;1.23;;;;;;;;;;4985783;28;20416;-82
2023/03/09 04:28:02;;;;;;;2.75;1.48;;;;;;;;;;4986200;28;20022;-82
2023/03/09 04:30:30;;;;;;;2.13;1.27;;;;;;;;;;4988412;28;20059;-82
2023/03/09 04:32:56;;;;;;;2.47;1.40;;;;;;;;;;4986976;28;20568;-83
2023/03/09 04:35:22;;;;;;;2.80;1.10;;;;;;;;;;4987813;28;20445;-82
2023/03/09 04:37:48;;;;;;;1.45;1.15;;;;;;;;;;4985371;28;20034;-84
2023/03/09 04:40:14;;;;;;;1.33;1.08;;;;;;;;;;4986799;28;20050;-82
2023/03/09 04:42:41;;;;;;;1.58;0.77;;;;;;;;;;4986671;28;20026;-81
2023/03/09 04:45:07;;;;;;;2.50;1.15;;;;;;;;;;4986788;28;20045;-82
2023/03/09 04:47:33;;;;;;;1.52;1.20;;;;;;;;;;4988506;28;20035;-83
2023/03/09 04:49:59;;;;;;;2.00;1.52;;;;;;;;;;4984460;28;20113;-83
2023/03/09 04:52:25;;;;;;;3.72;1.33;;;;;;;;;;4988533;28;20097;-82
2023/03/09 04:54:54;;;;;;;1.40;1.02;;;;;;;;;;4985979;28;20034;-83
2023/03/09 04:57:21;;;;;;;1.90;1.30;;;;;;;;;;4986645;28;20034;-82
2023/03/09 04:59:47;;;;;;;1.98;1.10;;;;;;;;;;4983002;28;20092;-81
2023/03/09 05:02:13;;;;;;;2.40;1.45;;;;;;;;;;4987278;28;20027;-81
2023/03/09 05:04:39;;;;;;;1.55;1.15;;;;;;;;;;4988069;28;20478;-81
2023/03/09 05:07:05;;;;;;;1.85;1.20;;;;;;;;;;4984610;28;20125;-82
2023/03/09 05:09:31;;;;;;;2.47;1.63;;;;;;;;;;4984740;28;20050;-82
2023/03/09 05:11:57;;;;;;;2.38;1.02;;;;;;;;;;4986160;28;20034;-82
2023/03/09 05:14:23;;;;;;;4.38;1.50;;;;;;;;;;4981364;28;20623;-80
2023/03/09 05:16:51;;;;;;;2.22;1.40;;;;;;;;;;4986631;28;20097;-78
2023/03/09 05:19:17;;;;;;;2.13;1.45;;;;;;;;;;4988282;28;20026;-80
2023/03/09 05:21:43;;;;;;;2.35;1.25;;;;;;;;;;4985588;28;20603;-81
2023/03/09 05:24:09;;;;;;;3.38;1.40;;;;;;;;;;4987256;28;20023;-81
2023/03/09 05:26:35;;;;;;;1.80;1.25;;;;;;;;;;4988381;28;20038;-81
2023/03/09 05:29:01;;;;;;;2.95;1.65;;;;;;;;;;4986691;28;20030;-81
2023/03/09 05:31:26;;;;;;;2.47;1.45;;;;;;;;;;4985913;28;20400;-80
2023/03/09 05:33:53;;;;;;;1.90;1.20;;;;;;;;;;4988883;28;20544;-82
2023/03/09 05:36:20;;;;;;;1.63;1.25;;;;;;;;;;4976981;28;20034;-81
2023/03/09 05:38:47;;;;;;;2.90;1.50;;;;;;;;;;4982389;28;20053;-81
2023/03/09 05:41:13;;;;;;;1.70;0.90;;;;;;;;;;4984458;28;20026;-81
2023/03/09 05:43:42;;;;;;;2.40;1.58;;;;;;;;;;4984857;28;20053;-81
2023/03/09 05:46:09;;;;;;;2.10;1.33;;;;;;;;;;4984660;28;20035;-82
2023/03/09 05:48:36;;;;;;;1.75;1.17;;;;;;;;;;4986366;28;20061;-81
2023/03/09 05:51:02;;;;;;;2.38;1.33;;;;;;;;;;4984239;28;20397;-85
2023/03/09 05:53:28;;;;;;;1.77;1.20;;;;;;;;;;4985107;28;20030;-87
2023/03/09 05:55:54;;;;;;;2.47;1.50;;;;;;;;;;4985918;28;20038;-78
2023/03/09 05:58:20;;;;;;;2.08;1.27;;;;;;;;;;4987221;28;20030;-80
2023/03/09 06:00:49;;;;;;;2.05;1.42;;;;;;;;;;4974767;28;20077;-81
2023/03/09 06:03:15;;;;;;;2.47;1.38;;;;;;;;;;4975900;28;20026;-82
2023/03/09 06:05:41;;;;;;;1.40;1.15;;;;;;;;;;4980457;28;20646;-82
2023/03/09 06:08:07;;;;;;;1.85;1.40;;;;;;;;;;4978101;28;20055;-81
2023/03/09 06:10:33;;;;;;;2.33;1.63;;;;;;;;;;4976594;28;20046;-81
2023/03/09 06:12:59;;;;;;;1.60;1.40;;;;;;;;;;4984070;28;20030;-82
2023/03/09 06:15:25;;;;;;;2.20;1.25;;;;;;;;;;4981274;28;20039;-82
2023/03/09 06:17:51;;;;;;;1.92;1.33;;;;;;;;;;4983108;28;20551;-82
2023/03/09 06:20:17;;;;;;;1.65;1.35;;;;;;;;;;4986079;28;20026;-82
2023/03/09 06:22:44;;;;;;;1.92;1.45;;;;;;;;;;4980637;28;20026;-83
2023/03/09 06:25:10;;;;;;;2.72;1.42;;;;;;;;;;4980986;28;20030;-83
2023/03/09 06:27:37;;;;;;;1.50;1.20;;;;;;;;;;4983162;28;20396;-81
2023/03/09 06:30:03;;;;;;;2.00;1.42;;;;;;;;;;4985312;28;20062;-81
2023/03/09 06:32:32;;;;;;;1.52;1.27;;;;;;;;;;4979385;28;20029;-81
2023/03/09 06:34:58;;;;;;;1.65;1.52;;;;;;;;;;4980620;28;20053;-81
2023/03/09 06:37:24;;;;;;;1.40;1.30;;;;;;;;;;4984263;28;20300;-82
2023/03/09 06:39:52;;;;;;;2.33;1.50;;;;;;;;;;4981721;28;20089;-81
2023/03/09 06:42:18;;;;;;;1.73;1.20;;;;;;;;;;4986589;28;20019;-81
2023/03/09 06:44:44;;;;;;;2.70;1.45;;;;;;;;;;4985430;28;20378;-82
2023/03/09 06:47:11;;;;;;;1.92;1.33;;;;;;;;;;4986056;28;20026;-81
2023/03/09 06:49:37;;;;;;;1.73;1.10;;;;;;;;;;4984445;28;20165;-81
2023/03/09 06:52:03;;;;;;;4.30;1.60;;;;;;;;;;4987502;28;20073;-81
2023/03/09 06:54:29;;;;;;;1.42;0.98;;;;;;;;;;4984936;28;20510;-81
2023/03/09 06:56:55;;;;;;;2.35;1.70;;;;;;;;;;4982181;28;20027;-82
2023/03/09 06:59:21;;;;;;;2.28;1.83;;;;;;;;;;4984127;28;20413;-82
2023/03/09 07:01:47;;;;;;;3.72;2.03;;;;;;;;;;4983234;28;20035;-81
2023/03/09 07:04:13;;;;;;;2.50;1.27;;;;;;;;;;4984181;28;20104;-81
2023/03/09 07:06:39;;;;;;;1.88;1.23;;;;;;;;;;4984147;28;20031;-82
2023/03/09 07:09:05;;;;;;;1.30;1.17;;;;;;;;;;4989139;28;20034;-80
2023/03/09 07:11:31;;;;;;;2.75;1.60;;;;;;;;;;4984025;28;20084;-81
2023/03/09 07:13:57;;;;;;;2.60;1.50;;;;;;;;;;4985886;28;20121;-85
2023/03/09 07:16:24;;;;;;;2.60;1.25;;;;;;;;;;4986465;28;20494;-80
2023/03/09 07:18:53;;;;;;;2.47;1.27;;;;;;;;;;4985448;28;20718;-81
2023/03/09 07:21:18;;;;;;;2.78;1.48;;;;;;;;;;4988058;28;20022;-81
2023/03/09 07:23:44;;;;;;;1.27;1.17;;;;;;;;;;4989938;28;20528;-81
2023/03/09 07:26:11;;;;;;;2.17;1.40;;;;;;;;;;4989185;28;20500;-85
2023/03/09 07:28:37;;;;;;;2.38;1.55;;;;;;;;;;4988047;28;20436;-80
2023/03/09 07:31:10;;;;;;;2.40;1.30;;;;;;;;;;4989797;28;20026;-82
2023/03/09 07:33:36;;;;;;;2.30;1.30;;;;;;;;;;4988085;28;20038;-82
2023/03/09 07:36:02;;;;;;;1.48;1.30;;;;;;;;;;4990408;28;20500;-83
2023/03/09 07:38:28;;;;;;;2.70;1.25;;;;;;;;;;4989126;28;20034;-82
2023/03/09 07:40:57;;;;;;;2.70;1.00;;;;;;;;;;4987521;28;20030;-84
2023/03/09 07:43:23;;;;;;;4.85;1.33;;;;;;;;;;4988138;28;20026;-74
2023/03/09 07:45:49;;;;;;;3.25;1.02;;;;;;;;;;4987612;28;20034;-86
2023/03/09 07:48:15;;;;;;;1.70;1.10;;;;;;;;;;4987651;28;20022;-82
2023/03/09 07:50:41;;;;;;;1.67;1.10;;;;;;;;;;4986259;28;20092;-86
2023/03/09 07:53:07;;;;;;;5.60;1.50;;;;;;;;;;4987815;28;20042;-77
2023/03/09 07:56:40;;;;;;;1.65;1.38;;;;;;;;;;4987907;28;20034;-80
2023/03/09 07:58:41;;;;;;;2.13;1.38;;;;;;;;;;4962007;28;20038;-81
2023/03/09 08:01:12;;;;;;;1.95;1.25;;;;;;;;;;4990299;28;20033;-80
2023/03/09 08:03:38;;;;;;;1.65;1.10;;;;;;;;;;4988394;28;20081;-80
2023/03/09 08:06:05;;;;;;;2.10;1.30;;;;;;;;;;4989300;28;20014;-80
2023/03/09 08:08:32;;;;;;;3.17;1.50;;;;;;;;;;4987338;28;20739;-80
2023/03/09 08:10:58;;;;;;;2.72;1.17;;;;;;;;;;4987246;28;20088;-80
2023/03/09 08:13:24;;;;;;;3.63;1.60;;;;;;;;;;4981956;28;20105;-80
2023/03/09 08:15:51;;;;;;;2.85;1.40;;;;;;;;;;4984978;28;20038;-80
2023/03/09 08:18:18;;;;;;;4.70;1.60;;;;;;;;;;4986073;28;20547;-81
2023/03/09 08:20:44;;;;;;;7.97;2.22;;;;;;;;;;4989002;28;20080;-81
2023/03/09 08:23:10;;;;;;;1.60;1.20;;;;;;;;;;4988272;28;20025;-80
2023/03/09 08:25:36;;;;;;;2.25;1.33;;;;;;;;;;4985983;28;20316;-80
2023/03/09 08:28:03;;;;;;;0.98;0.93;;;;;;;;;;4987441;28;20039;-80
2023/03/09 08:30:30;;;;;;;2.05;1.08;;;;;;;;;;4987167;28;20076;-81
2023/03/09 08:32:57;;;;;;;1.77;1.48;;;;;;;;;;4989459;28;20113;-80
2023/03/09 08:35:25;;;;;;;2.88;1.30;;;;;;;;;;4988243;28;20038;-80
2023/03/09 08:37:51;;;;;;;3.95;1.02;;;;;;;;;;4989444;28;20030;-79
2023/03/09 08:40:17;;;;;;;2.28;1.10;;;;;;;;;;4985271;28;20215;-80
2023/03/09 08:42:43;;;;;;;2.65;1.33;;;;;;;;;;4987108;28;20084;-80
2023/03/09 08:45:10;;;;;;;2.80;1.80;;;;;;;;;;4986075;28;20015;-80
2023/03/09 08:47:36;;;;;;;3.72;1.83;;;;;;;;;;4987807;28;20046;-80
2023/03/09 08:50:03;;;;;;;2.38;1.23;;;;;;;;;;4989527;28;20072;-81
2023/03/09 08:52:34;;;;;;;3.67;1.70;;;;;;;;;;4988069;28;20037;-81
2023/03/09 08:55:00;;;;;;;2.03;1.23;;;;;;;;;;4987632;28;20397;-80
2023/03/09 08:57:26;;;;;;;2.28;1.50;;;;;;;;;;4988502;28;20038;-80
2023/03/09 08:59:52;;;;;;;3.42;1.50;;;;;;;;;;4989250;28;20022;-81
2023/03/09 09:02:20;;;;;;;1.52;1.33;;;;;;;;;;4984398;28;20034;-79
2023/03/09 09:04:46;;;;;;;1.40;1.13;;;;;;;;;;4969569;28;20027;-79
2023/03/09 09:07:13;;;;;;;1.70;1.10;;;;;;;;;;4985837;28;20552;-78
2023/03/09 09:09:39;;;;;;;2.15;1.38;;;;;;;;;;4988558;28;20046;-80
2023/03/09 09:12:06;;;;;;;2.33;1.60;;;;;;;;;;4988127;28;20026;-79
2023/03/09 09:14:33;;;;;;;1.88;1.25;;;;;;;;;;4985787;28;20042;-78
2023/03/09 09:17:00;;;;;;;1.77;1.52;;;;;;;;;;4986297;28;20504;-80
2023/03/09 09:19:26;;;;;;;2.17;1.67;;;;;;;;;;4973363;28;20022;-78
2023/03/09 09:21:52;;;;;;;2.22;1.45;;;;;;;;;;4969731;28;20050;-78
2023/03/09 09:24:19;;;;;;;2.35;1.48;;;;;;;;;;4983542;28;20022;-78
2023/03/09 09:26:45;;;;;;;1.55;1.02;;;;;;;;;;4986094;28;20488;-78
2023/03/09 09:29:11;;;;;;;2.15;1.13;;;;;;;;;;4985562;28;20042;-78
2023/03/09 09:31:38;;;;;;;3.55;1.48;;;;;;;;;;4983296;28;20041;-81
2023/03/09 09:34:04;;;;;;;3.28;1.50;;;;;;;;;;4983662;28;20176;-81
2023/03/09 09:36:30;;;;;;;2.22;1.52;;;;;;;;;;4988568;28;20685;-81
2023/03/09 09:38:57;;;;;;;2.10;1.45;;;;;;;;;;4988332;28;20057;-81
2023/03/09 09:41:27;;;;;;;1.25;1.15;;;;;;;;;;4986116;28;20041;-80
2023/03/09 09:43:57;;;;;;;4.07;1.65;;;;;;;;;;4969086;28;20069;-81
2023/03/09 09:46:24;;;;;;;2.22;1.40;;;;;;;;;;4995601;28;20041;-81
2023/03/09 09:48:50;;;;;;;2.92;1.73;;;;;;;;;;4987706;28;20108;-83
2023/03/09 09:51:30;;;;;;;2.60;1.50;;;;;;;;;;4987104;28;20431;-80
2023/03/09 09:54:04;;;;;;;2.30;1.23;;;;;;;;;;4986910;28;20485;-83
2023/03/09 09:56:46;;;;;;;1.90;1.33;;;;;;;;;;4987980;28;20030;-81
2023/03/09 09:59:22;;;;;;;2.75;1.67;;;;;;;;;;4970816;28;20061;-81
2023/03/09 10:02:17;;;;;;;1.38;1.23;;;;;;;;;;4985349;28;20038;-81
2023/03/09 10:04:47;;;;;;;2.03;1.40;;;;;;;;;;4987750;28;20030;-81
2023/03/09 10:07:19;;;;;;;1.48;1.13;;;;;;;;;;4987879;28;20232;-81
2023/03/09 10:09:47;;;;;;;2.33;1.42;;;;;;;;;;4987766;28;20065;-81
2023/03/09 10:12:14;;;;;;;3.95;1.50;;;;;;;;;;4985226;28;20033;-81
2023/03/09 10:14:55;;;;;;;5.63;1.58;;;;;;;;;;4987718;28;20049;-82
2023/03/09 10:17:27;;;;;;;1.40;1.30;;;;;;;;;;4987815;28;20061;-82
2023/03/09 10:19:54;;;;;;;3.80;1.48;;;;;;;;;;4987840;28;20022;-81
2023/03/09 10:22:24;;;;;;;1.50;1.25;;;;;;;;;;4986745;28;20820;-81
2023/03/09 10:24:51;;;;;;;1.83;1.48;;;;;;;;;;4986528;28;20052;-81
2023/03/09 10:27:20;;;;;;;3.38;1.20;;;;;;;;;;4987560;28;20018;-81
2023/03/09 10:30:07;;;;;;;2.85;1.45;;;;;;;;;;4987476;28;20026;-81
2023/03/09 10:32:52;;;;;;;1.58;1.23;;;;;;;;;;4987793;28;20129;-81
2023/03/09 10:35:22;;;;;;;3.92;1.42;;;;;;;;;;4981921;28;20018;-81
2023/03/09 10:37:50;;;;;;;5.13;1.93;;;;;;;;;;4969086;28;20022;-82
2023/03/09 10:40:22;;;;;;;2.78;1.40;;;;;;;;;;4986068;28;20559;-81
2023/03/09 10:42:49;;;;;;;1.95;1.20;;;;;;;;;;4986670;28;20114;-81
2023/03/09 10:45:18;;;;;;;2.03;1.48;;;;;;;;;;4986589;28;20022;-81
2023/03/09 10:48:02;;;;;;;2.20;1.55;;;;;;;;;;4986283;28;20038;-82
2023/03/09 10:50:32;;;;;;;2.80;1.83;;;;;;;;;;4954176;28;20397;-81
2023/03/09 10:52:58;;;;;;;3.72;1.38;;;;;;;;;;4987512;28;20113;-80
2023/03/09 10:55:27;;;;;;;2.08;1.60;;;;;;;;;;4985992;28;20038;-81
2023/03/09 10:57:58;;;;;;;1.50;1.15;;;;;;;;;;4985684;28;20089;-81
2023/03/09 11:00:25;;;;;;;1.98;1.65;;;;;;;;;;4986744;28;20251;-81
2023/03/09 11:03:02;;;;;;;2.53;1.80;;;;;;;;;;4987397;28;20022;-83
2023/03/09 11:05:31;;;;;;;5.18;1.60;;;;;;;;;;4986923;28;20018;-82
2023/03/09 11:07:59;;;;;;;2.38;1.35;;;;;;;;;;4987148;28;20317;-84
2023/03/09 11:10:27;;;;;;;4.68;1.83;;;;;;;;;;4983548;28;20054;-82
2023/03/09 11:12:53;;;;;;;4.53;1.60;;;;;;;;;;4986947;28;20166;-83
2023/03/09 11:15:46;;;;;;;1.90;1.30;;;;;;;;;;4987233;28;20015;-81
2023/03/09 11:18:28;;;;;;;3.28;1.52;;;;;;;;;;4986121;28;20039;-83
2023/03/09 11:20:54;;;;;;;3.53;1.65;;;;;;;;;;4985225;28;20027;-83
2023/03/09 11:23:27;;;;;;;2.35;1.48;;;;;;;;;;4987458;28;20022;-80
2023/03/09 11:26:06;;;;;;;3.60;1.60;;;;;;;;;;4987818;28;20042;-83
2023/03/09 11:28:39;;;;;;;1.95;1.52;;;;;;;;;;4991233;28;20034;-83
2023/03/09 11:31:11;;;;;;;3.58;1.75;;;;;;;;;;4988890;28;20038;-81
2023/03/09 11:33:40;;;;;;;2.10;1.58;;;;;;;;;;4991197;28;20030;-83
2023/03/09 11:36:06;;;;;;;2.42;1.42;;;;;;;;;;4989286;28;20493;-80
2023/03/09 11:38:33;;;;;;;2.42;1.67;;;;;;;;;;4990703;28;20065;-82
2023/03/09 11:41:14;;;;;;;2.55;1.85;;;;;;;;;;4971132;28;20027;-83
2023/03/09 11:43:42;;;;;;;4.55;1.80;;;;;;;;;;4989536;28;20027;-83
2023/03/09 11:46:12;;;;;;;2.75;1.48;;;;;;;;;;4989143;28;20034;-81
2023/03/09 11:48:40;;;;;;;2.78;1.60;;;;;;;;;;4975128;28;20639;-81
2023/03/09 11:51:33;;;;;;;3.30;1.88;;;;;;;;;;4987818;28;20413;-84
2023/03/09 11:54:07;;;;;;;1.58;1.30;;;;;;;;;;4985435;28;20034;-83
2023/03/09 11:56:34;;;;;;;3.20;1.52;;;;;;;;;;4989949;28;20031;-83
2023/03/09 11:59:06;;;;;;;2.08;1.58;;;;;;;;;;4990351;28;20287;-83
2023/03/09 12:01:38;;;;;;;3.80;1.70;;;;;;;;;;4999150;28;20034;-82
2023/03/09 12:04:06;;;;;;;2.13;1.33;;;;;;;;;;4987653;28;20026;-82
2023/03/09 12:06:35;;;;;;;3.65;1.70;;;;;;;;;;4989960;28;20045;-83
2023/03/09 12:09:02;;;;;;;3.20;1.88;;;;;;;;;;4990112;28;20057;-83
2023/03/09 12:11:32;;;;;;;3.08;1.80;;;;;;;;;;4990082;28;20050;-83
2023/03/09 12:14:02;;;;;;;1.75;1.33;;;;;;;;;;4970424;28;20441;-82
2023/03/09 12:16:38;;;;;;;2.88;1.45;;;;;;;;;;4989980;28;20065;-83
2023/03/09 12:19:05;;;;;;;5.75;1.75;;;;;;;;;;4988375;28;20036;-83
2023/03/09 12:21:34;;;;;;;3.35;1.67;;;;;;;;;;4989708;28;20023;-84
2023/03/09 12:24:03;;;;;;;1.75;1.35;;;;;;;;;;4987320;28;20077;-83
2023/03/09 12:26:30;;;;;;;2.03;1.42;;;;;;;;;;4988448;28;20113;-83
2023/03/09 12:29:17;;;;;;;2.83;1.80;;;;;;;;;;4989516;28;20375;-82
2023/03/09 12:31:45;;;;;;;2.92;1.50;;;;;;;;;;4989750;28;20027;-83
2023/03/09 12:34:11;;;;;;;3.00;1.40;;;;;;;;;;4971234;28;20037;-83
2023/03/09 12:36:41;;;;;;;2.95;1.60;;;;;;;;;;4986596;28;20075;-82
2023/03/09 12:39:23;;;;;;;2.38;1.60;;;;;;;;;;4989410;28;20105;-82
2023/03/09 12:41:49;;;;;;;;;;;;;;;;;;4987833;28;20093;-82
2023/03/09 12:44:35;;;;;;;2.00;1.40;;;;;;;;;;4988851;28;19973;-82
2023/03/09 12:47:03;;;;;;;2.33;1.67;;;;;;;;;;4986931;28;20037;-83
2023/03/09 12:49:31;;;;;;;2.90;1.88;;;;;;;;;;4989340;28;20060;-82
2023/03/09 12:52:07;;;;;;;5.03;1.67;;;;;;;;;;4989176;28;20038;-83
2023/03/09 12:54:33;;;;;;;2.90;1.40;;;;;;;;;;4987896;28;20035;-82
2023/03/09 12:57:09;;;;;;;2.72;1.88;;;;;;;;;;4987272;28;20053;-83
2023/03/09 12:59:36;;;;;;;4.00;2.05;;;;;;;;;;4988630;28;20557;-82
2023/03/09 13:02:22;;;;;;;2.28;1.70;;;;;;;;;;4987012;28;20080;-83
2023/03/09 13:05:07;;;;;;;3.53;1.90;;;;;;;;;;4971305;28;20033;-82
2023/03/09 13:07:33;;;;;;;1.92;1.50;;;;;;;;;;4986873;28;20027;-84
2023/03/09 13:09:59;;;;;;;3.60;2.08;;;;;;;;;;4988598;28;20156;-83
2023/03/09 13:12:29;;;;;;;3.38;1.83;;;;;;;;;;4980886;28;20033;-76
2023/03/09 13:15:14;;;;;;;3.65;1.90;;;;;;;;;;4988126;28;20044;-79
2023/03/09 13:17:40;;;;;;;3.17;1.70;;;;;;;;;;4985664;28;20421;-77
2023/03/09 13:20:18;;;;;;;2.35;1.73;;;;;;;;;;4986490;28;20019;-80
2023/03/09 13:22:45;;;;;;;4.13;2.08;;;;;;;;;;4986233;28;20045;-80
2023/03/09 13:25:18;;;;;;;4.28;2.03;;;;;;;;;;4986403;28;20460;-78
2023/03/09 13:27:44;;;;;;;6.10;1.75;;;;;;;;;;4985293;28;20117;-84
2023/03/09 13:30:17;;;;;;;3.47;2.13;;;;;;;;;;4988002;28;20037;-77
2023/03/09 13:32:58;;;;;;;3.17;1.92;;;;;;;;;;4988112;28;20600;-77
2023/03/09 13:35:28;;;;;;;2.10;1.65;;;;;;;;;;4986419;28;20033;-77
2023/03/09 13:37:56;;;;;;;5.90;2.35;;;;;;;;;;4985654;28;20034;-81
2023/03/09 13:40:29;;;;;;;3.38;1.98;;;;;;;;;;4990167;28;20034;-80
2023/03/09 13:42:56;;;;;;;3.60;2.38;;;;;;;;;;4979921;28;20050;-78
2023/03/09 13:45:24;;;;;;;3.13;1.98;;;;;;;;;;4988993;28;20034;-81
2023/03/09 13:47:57;;;;;;;3.20;1.50;;;;;;;;;;4991090;28;20504;-78
2023/03/09 13:50:26;;;;;;;5.15;2.03;;;;;;;;;;4987547;28;20150;-75
2023/03/09 13:53:01;;;;;;;1.63;1.52;;;;;;;;;;4983319;28;20428;-75
2023/03/09 13:55:28;;;;;;;4.65;2.47;;;;;;;;;;4981928;28;20030;-77
2023/03/09 13:57:54;;;;;;;3.45;1.73;;;;;;;;;;4984859;28;20040;-80
2023/03/09 14:00:22;;;;;;;4.93;2.13;;;;;;;;;;4982566;28;20100;-79
2023/03/09 14:02:49;;;;;;;4.30;2.22;;;;;;;;;;4984711;28;20029;-75
2023/03/09 14:05:14;;;;;;;2.17;1.77;;;;;;;;;;4985763;28;20032;-76
2023/03/09 14:07:50;;;;;;;4.38;2.17;;;;;;;;;;4985906;28;20400;-77
2023/03/09 14:10:21;;;;;;;5.28;2.40;;;;;;;;;;4987299;28;20069;-74
2023/03/09 14:12:48;;;;;;;;;;;;;;;;;;4986359;28;20048;-76
2023/03/09 14:15:18;;;;;;;3.08;1.70;;;;;;;;;;4981564;28;20268;-76
2023/03/09 14:17:44;;;;;;;4.35;1.73;;;;;;;;;;4986705;28;20042;-73
2023/03/09 14:20:17;;;;;;;3.17;2.22;;;;;;;;;;4986508;28;20082;-76
2023/03/09 14:22:43;;;;;;;6.03;3.45;;;;;;;;;;4993216;28;20117;-76
2023/03/09 14:25:29;;;;;;;5.03;3.03;;;;;;;;;;4983561;28;20027;-76
2023/03/09 14:27:55;;;;;;;7.45;4.03;;;;;;;;;;4988261;28;20048;-74
2023/03/09 14:30:27;;;;;;;8.05;3.22;;;;;;;;;;4989364;28;20031;-76
2023/03/09 14:32:58;;;;;;;6.40;3.33;;;;;;;;;;4983410;28;20032;-73
2023/03/09 14:35:56;;;;;;;21.27;4.70;;;;;;;;;;4992046;28;20018;-76
2023/03/09 14:38:23;;;;;;;12.13;3.70;;;;;;;;;;4981665;28;20039;-76
2023/03/09 14:40:58;;;;;;;9.55;5.07;;;;;;;;;;4985726;28;20033;-78
2023/03/09 14:43:24;;;;;;;11.20;3.92;;;;;;;;;;4985943;28;20034;-87
2023/03/09 14:45:50;;;;;;;7.80;3.60;;;;;;;;;;4988348;28;20026;-79
2023/03/09 14:48:16;;;;;;;10.10;4.80;;;;;;;;;;4983577;28;20435;-77
2023/03/09 14:50:43;;;;;;;11.00;5.15;;;;;;;;;;4988887;28;20034;-82